Time;durP1;ratioP1;P1;durP2;ratioP2;P2;SDS_P1;SDS_P2;PMS_P1;PMS_P2;Temp;Humidity;BMP_temperature;BMP_pressure;BME280_temperature;BME280_humidity;BME280_pressure;Samples;Min_cycle;Max_cycle;Signal;HPM_P1;HPM_P2
2022/03/09 00:00:09;;;;;;;17.52;7.45;;;;;;;-4.42;70.52;95984.03;5056966;28;20037;-72
2022/03/09 00:02:55;;;;;;;19.48;6.70;;;;;;;-4.45;71.10;95992.84;5051699;28;20052;-71
2022/03/09 00:05:20;;;;;;;16.38;7.43;;;;;;;-4.66;71.22;95990.00;5047782;28;20045;-71
2022/03/09 00:07:46;;;;;;;16.55;7.90;;;;;;;-4.44;70.83;95994.47;5062687;28;20491;-71
2022/03/09 00:10:11;;;;;;;17.83;7.70;;;;;;;-4.46;71.21;95990.44;5059896;28;20418;-71
2022/03/09 00:12:37;;;;;;;20.25;7.88;;;;;;;-4.47;70.96;96002.47;5045898;28;20120;-71
2022/03/09 00:15:03;;;;;;;24.40;8.40;;;;;;;-4.63;71.29;96003.28;5045351;28;20048;-71
2022/03/09 00:17:28;;;;;;;19.77;7.40;;;;;;;-4.58;71.64;96002.81;5043194;28;20037;-71
2022/03/09 00:19:54;;;;;;;20.15;8.40;;;;;;;-4.63;71.27;96005.06;5056187;28;20042;-73
2022/03/09 00:22:19;;;;;;;18.55;7.50;;;;;;;-4.71;71.57;96004.09;5046087;28;20600;-72
2022/03/09 00:24:45;;;;;;;21.30;8.35;;;;;;;-4.74;72.26;96004.44;5056463;28;20419;-72
2022/03/09 00:27:10;;;;;;;20.17;7.53;;;;;;;-4.79;71.67;96001.53;5041510;28;20047;-72
2022/03/09 00:29:37;;;;;;;17.65;8.00;;;;;;;-4.77;72.01;96004.75;5056840;28;20577;-71
2022/03/09 00:32:04;;;;;;;15.60;7.18;;;;;;;-4.80;72.61;96005.06;5052050;28;20036;-71
2022/03/09 00:34:30;;;;;;;17.10;7.43;;;;;;;-4.74;72.00;95999.31;5043784;28;20075;-71
2022/03/09 00:36:55;;;;;;;16.95;6.88;;;;;;;-4.73;72.54;96006.03;5029023;28;20042;-71
2022/03/09 00:39:21;;;;;;;13.98;6.90;;;;;;;-4.70;72.30;96005.72;5039132;28;20495;-71
2022/03/09 00:41:46;;;;;;;17.67;7.40;;;;;;;-4.70;71.76;96004.91;5036407;28;20059;-71
2022/03/09 00:44:12;;;;;;;14.95;7.15;;;;;;;-4.85;71.93;96017.59;5034199;28;20041;-71
2022/03/09 00:46:37;;;;;;;17.00;7.03;;;;;;;-4.94;72.38;96003.94;5045500;28;20048;-70
2022/03/09 00:49:03;;;;;;;18.20;6.68;;;;;;;-4.88;73.05;96015.34;5047837;28;20033;-70
2022/03/09 00:51:29;;;;;;;18.15;7.32;;;;;;;-4.80;72.79;96009.41;5073694;28;20513;-70
2022/03/09 00:53:55;;;;;;;16.08;7.28;;;;;;;-4.98;72.85;96012.13;5045350;28;20045;-70
2022/03/09 00:56:21;;;;;;;19.13;7.22;;;;;;;-5.07;72.65;96013.88;5031204;28;20125;-70
2022/03/09 00:58:47;;;;;;;13.95;6.60;;;;;;;-5.13;73.86;96004.25;5027819;28;20049;-70
2022/03/09 01:01:13;;;;;;;15.27;6.85;;;;;;;-5.06;73.71;96008.59;5039087;28;20724;-70
2022/03/09 01:03:38;;;;;;;20.02;7.85;;;;;;;-5.17;73.62;96014.03;5029071;28;20061;-70
2022/03/09 01:06:04;;;;;;;16.60;7.05;;;;;;;-5.21;74.12;96007.63;5059585;28;20154;-70
2022/03/09 01:08:30;;;;;;;18.25;7.10;;;;;;;-5.30;74.11;96008.53;5047849;28;20056;-70
2022/03/09 01:10:57;;;;;;;16.90;6.88;;;;;;;-5.34;74.59;96002.13;5045399;28;20036;-70
2022/03/09 01:13:22;;;;;;;16.45;7.28;;;;;;;-5.35;74.61;96001.31;5046929;28;20033;-70
2022/03/09 01:15:49;;;;;;;15.05;6.80;;;;;;;-5.38;74.45;96004.22;5056974;28;20040;-70
2022/03/09 01:18:14;;;;;;;13.30;6.82;;;;;;;-5.42;74.40;95998.56;5054270;28;20041;-70
2022/03/09 01:20:40;;;;;;;14.98;6.60;;;;;;;-5.41;74.34;96001.97;5041825;28;20052;-70
2022/03/09 01:23:06;;;;;;;13.50;6.53;;;;;;;-5.45;74.68;95995.53;5030761;28;20506;-70
2022/03/09 01:25:32;;;;;;;15.63;6.93;;;;;;;-5.52;74.94;96000.47;5037562;28;20069;-70
2022/03/09 01:27:57;;;;;;;12.98;6.07;;;;;;;-5.57;75.00;95992.47;5052615;28;20086;-70
2022/03/09 01:30:23;;;;;;;18.17;7.10;;;;;;;-5.61;74.92;95988.59;5053383;28;20037;-70
2022/03/09 01:32:48;;;;;;;16.75;7.18;;;;;;;-5.58;75.17;95980.59;5038242;28;20037;-69
2022/03/09 01:35:14;;;;;;;15.52;6.53;;;;;;;-5.54;75.09;95981.91;5033953;28;20391;-70
2022/03/09 01:37:41;;;;;;;17.33;6.97;;;;;;;-5.60;75.42;95972.28;5031051;28;20053;-70
2022/03/09 01:40:07;;;;;;;16.10;6.97;;;;;;;-5.65;75.66;95979.63;5042850;28;20041;-70
2022/03/09 01:42:33;;;;;;;16.80;7.15;;;;;;;-5.69;75.49;95973.19;5045132;28;20059;-69
2022/03/09 01:45:08;;;;;;;17.45;7.20;;;;;;;-5.74;76.34;95977.03;5041795;28;20049;-70
2022/03/09 01:47:34;;;;;;;16.40;6.80;;;;;;;-5.69;76.09;95978.31;5035219;28;20457;-70
2022/03/09 01:49:59;;;;;;;16.33;6.70;;;;;;;-5.71;75.59;95985.38;5050954;28;20052;-70
2022/03/09 01:52:26;;;;;;;16.85;7.07;;;;;;;-5.75;75.79;95980.56;5048336;28;20041;-70
2022/03/09 01:54:52;;;;;;;20.77;6.78;;;;;;;-5.78;75.87;95991.09;5049806;28;20175;-69
2022/03/09 01:57:19;;;;;;;19.10;7.32;;;;;;;-5.81;75.91;95981.16;5041231;28;20049;-70
2022/03/09 01:59:48;;;;;;;15.43;7.18;;;;;;;-5.79;75.99;95974.13;5052596;28;20051;-70
2022/03/09 02:02:14;;;;;;;20.10;7.28;;;;;;;-5.93;76.00;95978.09;5041788;28;20041;-70
2022/03/09 02:04:40;;;;;;;15.60;7.00;;;;;;;-6.02;77.72;95978.22;5039431;28;20973;-70
2022/03/09 02:07:09;;;;;;;17.05;7.20;;;;;;;-5.95;77.46;95976.63;5070157;28;20501;-70
2022/03/09 02:09:43;;;;;;;18.30;7.22;;;;;;;-6.01;77.06;95979.84;5047037;28;20388;-70
2022/03/09 02:12:11;;;;;;;17.90;7.55;;;;;;;-6.06;77.03;95979.50;5050638;28;20658;-70
2022/03/09 02:14:41;;;;;;;19.35;7.03;;;;;;;-6.07;76.45;95975.34;5037763;28;20045;-70
2022/03/09 02:17:11;;;;;;;16.75;7.97;;;;;;;-6.12;76.52;95979.16;5049026;28;20055;-70
2022/03/09 02:19:38;;;;;;;16.98;6.55;;;;;;;-6.15;77.27;95984.59;5049845;28;20068;-70
2022/03/09 02:22:11;;;;;;;16.40;7.25;;;;;;;-6.21;77.16;95979.28;5048372;28;20032;-70
2022/03/09 02:24:37;;;;;;;14.93;6.93;;;;;;;-6.17;77.90;95976.25;5047098;28;20049;-71
2022/03/09 02:27:02;;;;;;;17.55;7.35;;;;;;;-6.19;77.19;95983.31;5049321;28;20045;-70
2022/03/09 02:29:28;;;;;;;15.50;7.50;;;;;;;-6.14;77.32;95975.16;5047744;28;20120;-70
2022/03/09 02:31:54;;;;;;;20.35;7.80;;;;;;;-6.15;77.64;95976.91;5050584;28;20045;-70
2022/03/09 02:34:19;;;;;;;17.33;7.47;;;;;;;-6.28;77.08;95973.94;5045299;28;20045;-71
2022/03/09 02:36:45;;;;;;;17.73;7.38;;;;;;;-6.53;78.49;95976.38;5031105;28;20095;-70
2022/03/09 02:39:10;;;;;;;19.40;7.28;;;;;;;-6.49;78.72;95976.91;5037985;28;20041;-70
2022/03/09 02:41:36;;;;;;;18.35;7.88;;;;;;;-6.58;78.30;95967.53;5034851;28;20069;-70
2022/03/09 02:44:02;;;;;;;23.55;7.40;;;;;;;-6.56;78.25;95974.13;5049286;28;20049;-70
2022/03/09 02:46:28;;;;;;;20.00;8.02;;;;;;;-6.40;78.05;95970.06;5048574;28;20041;-70
2022/03/09 02:48:53;;;;;;;18.45;7.38;;;;;;;-6.47;77.78;95980.88;5047988;28;20032;-70
2022/03/09 02:51:19;;;;;;;18.23;7.75;;;;;;;-6.50;78.22;95981.19;5045641;28;20044;-69
2022/03/09 02:53:45;;;;;;;17.23;7.20;;;;;;;-6.41;78.03;95983.81;5048714;28;20127;-70
2022/03/09 02:56:10;;;;;;;15.95;6.82;;;;;;;-6.45;78.63;95984.13;5033268;28;20410;-71
2022/03/09 02:58:36;;;;;;;19.05;6.93;;;;;;;-6.35;78.04;95978.06;5031377;28;20099;-70
2022/03/09 03:01:02;;;;;;;18.85;7.78;;;;;;;-6.40;77.96;95972.63;5034942;28;20060;-70
2022/03/09 03:03:28;;;;;;;20.52;7.55;;;;;;;-6.82;80.65;95976.69;5042016;28;20033;-70
2022/03/09 03:05:54;;;;;;;19.13;7.68;;;;;;;-6.81;80.00;95985.94;5039676;28;20037;-70
2022/03/09 03:08:19;;;;;;;16.42;7.05;;;;;;;-6.66;79.42;95975.97;5036104;28;20456;-70
2022/03/09 03:10:45;;;;;;;18.15;7.55;;;;;;;-6.60;78.82;95967.69;5046732;28;20116;-70
2022/03/09 03:13:10;;;;;;;23.92;8.20;;;;;;;-6.61;78.79;95963.53;5047142;28;20057;-70
2022/03/09 03:15:36;;;;;;;20.65;8.07;;;;;;;-6.71;79.30;95968.75;5048498;28;20052;-70
2022/03/09 03:18:01;;;;;;;17.50;7.43;;;;;;;-6.70;79.20;95970.34;5039539;28;20096;-70
2022/03/09 03:20:27;;;;;;;20.23;7.35;;;;;;;-6.74;79.88;95978.47;5044648;28;20052;-69
2022/03/09 03:22:53;;;;;;;14.82;7.03;;;;;;;-6.73;79.84;95982.66;5047199;28;20044;-70
2022/03/09 03:25:18;;;;;;;15.43;6.40;;;;;;;-6.69;79.24;95976.28;5039422;28;20033;-70
2022/03/09 03:27:44;;;;;;;16.63;6.95;;;;;;;-6.69;79.29;95978.84;5030585;28;20048;-70
2022/03/09 03:30:10;;;;;;;16.67;7.35;;;;;;;-6.74;80.04;95983.59;5048578;28;20086;-69
2022/03/09 03:32:36;;;;;;;19.08;7.65;;;;;;;-6.71;79.65;95993.53;5053026;28;20099;-70
2022/03/09 03:35:02;;;;;;;19.40;7.57;;;;;;;-6.82;80.06;96000.50;5048164;28;20414;-70
2022/03/09 03:37:28;;;;;;;23.00;7.10;;;;;;;-6.98;80.49;96001.19;5042596;28;20060;-70
2022/03/09 03:39:53;;;;;;;25.17;8.27;;;;;;;-7.11;80.78;96002.50;5030876;28;20116;-70
2022/03/09 03:42:19;;;;;;;16.95;7.25;;;;;;;-6.97;80.67;96010.47;5049541;28;20123;-69
2022/03/09 03:44:44;;;;;;;16.92;6.72;;;;;;;-6.83;80.31;96021.94;5063236;28;20771;-70
2022/03/09 03:47:10;;;;;;;15.27;6.05;;;;;;;-6.82;80.28;96028.66;5050420;28;20428;-70
2022/03/09 03:49:36;;;;;;;19.92;7.30;;;;;;;-6.80;80.15;96021.63;5047878;28;20049;-69
2022/03/09 03:52:01;;;;;;;15.27;7.13;;;;;;;-6.71;79.54;96019.13;5047104;28;20045;-69
2022/03/09 03:54:27;;;;;;;17.30;7.20;;;;;;;-6.74;79.68;96014.31;5048988;28;20049;-69
2022/03/09 03:56:52;;;;;;;18.77;7.78;;;;;;;-6.79;80.19;96022.44;5043380;28;20041;-69
2022/03/09 03:59:18;;;;;;;15.95;6.88;;;;;;;-6.85;80.27;96023.84;5029652;28;20041;-69
2022/03/09 04:01:44;;;;;;;20.45;7.40;;;;;;;-6.84;80.46;96028.03;5052362;28;20076;-69
2022/03/09 04:04:09;;;;;;;14.50;6.80;;;;;;;-6.90;80.86;96036.25;5046239;28;20064;-69
2022/03/09 04:06:35;;;;;;;15.40;6.72;;;;;;;-6.80;80.36;96031.84;5050698;28;20118;-69
2022/03/09 04:09:00;;;;;;;20.48;6.70;;;;;;;-6.89;79.93;96037.88;5041914;28;20049;-69
2022/03/09 04:11:26;;;;;;;15.93;6.88;;;;;;;-6.94;80.42;96040.06;5063358;28;20048;-69
2022/03/09 04:13:52;;;;;;;18.60;6.88;;;;;;;-6.95;81.03;96043.59;5033674;28;20037;-69
2022/03/09 04:16:17;;;;;;;17.40;7.05;;;;;;;-6.86;80.57;96052.94;5067339;28;20036;-70
2022/03/09 04:18:43;;;;;;;17.70;7.28;;;;;;;-6.90;80.81;96051.63;5037443;28;20499;-69
2022/03/09 04:21:08;;;;;;;20.75;7.80;;;;;;;-6.93;81.17;96049.34;5045218;28;20052;-69
2022/03/09 04:23:34;;;;;;;14.75;6.90;;;;;;;-6.97;80.78;96053.16;5053073;28;20443;-69
2022/03/09 04:26:00;;;;;;;18.42;7.70;;;;;;;-7.05;81.83;96047.94;5047252;28;20132;-70
2022/03/09 04:28:27;;;;;;;19.85;7.13;;;;;;;-6.95;80.79;96056.38;5058267;28;20052;-69
2022/03/09 04:30:52;;;;;;;16.30;7.03;;;;;;;-7.03;81.72;96056.31;5069146;28;20036;-70
2022/03/09 04:33:18;;;;;;;16.67;7.28;;;;;;;-6.88;81.71;96054.84;5049630;28;20059;-69
2022/03/09 04:35:43;;;;;;;23.30;7.55;;;;;;;-6.84;81.41;96056.16;5056639;28;20048;-69
2022/03/09 04:38:09;;;;;;;20.73;7.38;;;;;;;-6.82;80.86;96056.03;5053469;28;20044;-70
2022/03/09 04:40:34;;;;;;;21.25;7.28;;;;;;;-6.93;81.98;96051.91;5049203;28;20060;-70
2022/03/09 04:43:00;;;;;;;18.00;7.75;;;;;;;-6.80;82.04;96062.56;5047136;28;20041;-69
2022/03/09 04:45:25;;;;;;;15.15;6.88;;;;;;;-6.80;81.27;96057.47;5048697;28;20041;-70
2022/03/09 04:47:51;;;;;;;19.05;7.50;;;;;;;-6.80;81.25;96056.66;5056467;28;20072;-70
2022/03/09 04:50:17;;;;;;;15.77;6.97;;;;;;;-6.83;81.56;96057.75;5061180;28;20067;-70
2022/03/09 04:52:42;;;;;;;41.30;11.68;;;;;;;-6.79;81.09;96066.75;5051295;28;20044;-70
2022/03/09 04:55:08;;;;;;;24.73;8.23;;;;;;;-6.93;80.80;96067.25;5042506;28;20422;-70
2022/03/09 04:57:38;;;;;;;22.35;8.10;;;;;;;-7.00;81.25;96066.25;5035110;28;20041;-70
2022/03/09 05:00:05;;;;;;;17.05;7.38;;;;;;;-7.33;82.83;96073.59;5062922;28;20047;-70
2022/03/09 05:02:31;;;;;;;17.05;7.55;;;;;;;-7.22;83.09;96063.16;5036122;28;20033;-70
2022/03/09 05:04:57;;;;;;;18.60;8.63;;;;;;;-7.39;83.55;96082.63;5050872;28;20106;-70
2022/03/09 05:07:22;;;;;;;16.48;6.97;;;;;;;-7.39;84.04;96079.28;5032971;28;20116;-69
2022/03/09 05:09:48;;;;;;;20.73;7.45;;;;;;;-7.55;84.11;96083.25;5048688;28;20040;-70
2022/03/09 05:12:13;;;;;;;17.80;7.45;;;;;;;-7.58;84.90;96081.00;5031487;28;20037;-70
2022/03/09 05:14:39;;;;;;;14.55;6.57;;;;;;;-7.25;83.59;96083.91;5057862;28;20037;-70
2022/03/09 05:17:05;;;;;;;16.20;7.32;;;;;;;-7.22;83.39;96091.28;5044633;28;20056;-70
2022/03/09 05:19:30;;;;;;;19.48;7.70;;;;;;;-7.31;83.30;96089.59;5050931;28;20057;-70
2022/03/09 05:21:56;;;;;;;20.30;6.95;;;;;;;-7.32;83.44;96088.78;5050995;28;20052;-70
2022/03/09 05:24:21;;;;;;;21.25;7.35;;;;;;;-7.40;84.10;96095.56;5034644;28;20462;-70
2022/03/09 05:26:47;;;;;;;18.17;7.25;;;;;;;-7.46;84.42;96096.13;5043298;28;20045;-70
2022/03/09 05:29:14;;;;;;;19.80;7.68;;;;;;;-7.29;82.87;96097.94;5055040;28;20674;-70
2022/03/09 05:31:40;;;;;;;19.55;6.97;;;;;;;-7.24;82.71;96094.94;5042007;28;20042;-69
2022/03/09 05:34:06;;;;;;;18.08;7.43;;;;;;;-7.20;82.40;96097.06;5040662;28;20148;-70
2022/03/09 05:36:32;;;;;;;16.95;6.72;;;;;;;-7.20;82.17;96096.25;5050860;28;20057;-70
2022/03/09 05:38:58;;;;;;;15.93;6.55;;;;;;;-7.22;82.37;96098.97;5057325;28;20030;-70
2022/03/09 05:41:23;;;;;;;18.73;6.80;;;;;;;-7.20;82.72;96097.06;5052167;28;20052;-70
2022/03/09 05:43:50;;;;;;;16.10;7.03;;;;;;;-7.18;82.48;96105.41;5043750;28;20044;-70
2022/03/09 05:46:16;;;;;;;22.50;7.82;;;;;;;-7.22;82.78;96104.09;5068339;28;20577;-69
2022/03/09 05:48:41;;;;;;;23.52;7.82;;;;;;;-7.35;83.89;96103.63;5058535;28;20241;-70
2022/03/09 05:51:07;;;;;;;17.83;7.32;;;;;;;-7.40;84.03;96096.34;5049274;28;20055;-70
2022/03/09 05:53:33;;;;;;;22.50;7.43;;;;;;;-7.25;83.39;96101.81;5042075;28;20045;-70
2022/03/09 05:55:58;;;;;;;16.20;7.32;;;;;;;-7.16;83.27;96103.50;5051532;28;20041;-70
2022/03/09 05:58:24;;;;;;;17.50;7.45;;;;;;;-7.17;83.17;96104.47;5050016;28;20504;-70
2022/03/09 06:00:49;;;;;;;15.73;7.00;;;;;;;-7.14;82.94;96111.03;5057739;28;20467;-70
2022/03/09 06:03:15;;;;;;;16.30;6.85;;;;;;;-7.08;83.17;96112.22;5063478;28;20048;-70
2022/03/09 06:05:40;;;;;;;18.92;6.78;;;;;;;-6.99;82.83;96108.78;5051442;28;20071;-70
2022/03/09 06:08:06;;;;;;;24.20;7.10;;;;;;;-7.03;82.11;96110.03;5066684;28;20506;-70
2022/03/09 06:10:32;;;;;;;16.23;6.65;;;;;;;-7.11;82.28;96109.94;5057894;28;20049;-70
2022/03/09 06:12:58;;;;;;;20.38;7.63;;;;;;;-7.03;82.62;96097.25;5051790;28;20043;-70
2022/03/09 06:15:24;;;;;;;16.10;8.07;;;;;;;-6.84;82.62;96102.25;5051968;28;20041;-69
2022/03/09 06:17:50;;;;;;;24.08;7.38;;;;;;;-6.80;82.42;96103.53;5055332;28;20579;-70
2022/03/09 06:20:18;;;;;;;18.88;7.30;;;;;;;-6.76;81.47;96098.13;5065409;28;20052;-69
2022/03/09 06:22:44;;;;;;;17.02;6.68;;;;;;;-6.83;82.25;96093.59;5054994;28;20043;-69
2022/03/09 06:25:10;;;;;;;22.98;7.60;;;;;;;-6.76;81.88;96100.69;5053033;28;20049;-69
2022/03/09 06:27:54;;;;;;;20.65;7.80;;;;;;;-6.73;81.90;96097.84;5049858;28;20102;-70
2022/03/09 06:30:20;;;;;;;16.17;7.33;;;;;;;-6.74;82.75;96088.53;5045676;28;20045;-69
2022/03/09 06:32:47;;;;;;;16.02;7.50;;;;;;;-6.66;82.73;96098.88;5048026;28;20282;-69
2022/03/09 06:35:14;;;;;;;17.42;7.43;;;;;;;-6.53;82.50;96099.28;5050773;28;20067;-69
2022/03/09 06:37:40;;;;;;;17.02;6.90;;;;;;;-6.46;82.04;96100.31;5050982;28;20045;-68
2022/03/09 06:40:07;;;;;;;19.95;7.55;;;;;;;-6.41;82.87;96092.16;5050737;28;20037;-69
2022/03/09 06:42:33;;;;;;;19.00;7.75;;;;;;;-6.33;82.40;96094.81;5049141;28;20121;-69
2022/03/09 06:44:59;;;;;;;23.88;7.72;;;;;;;-6.23;82.42;96094.72;5055026;28;20044;-69
2022/03/09 06:47:25;;;;;;;19.80;7.60;;;;;;;-6.11;82.07;96103.75;5044623;28;20102;-69
2022/03/09 06:49:50;;;;;;;15.95;6.95;;;;;;;-6.03;82.31;96094.50;5044593;28;20682;-69
2022/03/09 06:52:16;;;;;;;18.83;7.68;;;;;;;-5.98;81.96;96092.31;5048122;28;20045;-69
2022/03/09 06:54:42;;;;;;;37.13;8.45;;;;;;;-6.01;81.74;96092.59;5049793;28;20048;-69
2022/03/09 06:57:08;;;;;;;25.38;8.05;;;;;;;-5.92;81.93;96095.03;5064973;28;20075;-70
2022/03/09 06:59:33;;;;;;;26.75;8.70;;;;;;;-5.88;81.56;96092.97;5045808;28;20053;-70
2022/03/09 07:01:59;;;;;;;34.88;8.93;;;;;;;-5.72;82.19;96099.13;5044868;28;20052;-71
2022/03/09 07:04:24;;;;;;;31.80;8.75;;;;;;;-5.57;81.81;96105.31;5045003;28;20448;-71
2022/03/09 07:06:50;;;;;;;32.70;7.28;;;;;;;-5.47;81.30;96100.84;5049204;28;20064;-70
2022/03/09 07:09:16;;;;;;;23.23;8.27;;;;;;;-5.38;80.91;96108.59;5041430;28;20422;-69
2022/03/09 07:11:42;;;;;;;15.65;7.22;;;;;;;-5.31;80.74;96101.88;5044329;28;20491;-69
2022/03/09 07:14:08;;;;;;;24.02;8.07;;;;;;;-5.20;80.74;96101.59;5043990;28;20044;-69
2022/03/09 07:16:34;;;;;;;17.83;8.57;;;;;;;-5.14;80.83;96110.41;5048298;28;20040;-69
2022/03/09 07:18:59;;;;;;;25.90;8.23;;;;;;;-5.12;80.75;96109.31;5048719;28;20029;-69
2022/03/09 07:21:25;;;;;;;20.52;7.50;;;;;;;-4.98;81.11;96109.69;5052047;28;20434;-69
2022/03/09 07:23:51;;;;;;;16.15;7.53;;;;;;;-4.92;80.40;96109.03;5050536;28;20494;-68
2022/03/09 07:26:17;;;;;;;19.27;7.13;;;;;;;-4.82;78.84;96109.69;5051422;28;20044;-71
2022/03/09 07:28:42;;;;;;;17.25;7.30;;;;;;;-4.80;79.27;96112.13;5059506;28;20498;-68
2022/03/09 07:31:08;;;;;;;20.38;7.47;;;;;;;-4.73;79.42;96108.75;5046067;28;20075;-68
2022/03/09 07:33:34;;;;;;;20.20;7.45;;;;;;;-4.68;79.00;96116.00;5053325;28;20418;-68
2022/03/09 07:36:00;;;;;;;17.85;7.82;;;;;;;-4.62;78.74;96114.56;5054987;28;20056;-68
2022/03/09 07:38:26;;;;;;;19.33;8.13;;;;;;;-4.52;78.40;96112.63;5050045;28;20044;-74
2022/03/09 07:40:52;;;;;;;17.30;7.63;;;;;;;-4.31;76.24;96121.63;5054293;28;20502;-69
2022/03/09 07:43:19;;;;;;;18.20;7.72;;;;;;;-4.21;76.51;96117.94;5053403;28;20090;-68
2022/03/09 07:45:45;;;;;;;22.02;8.50;;;;;;;-4.14;75.99;96118.06;5063410;28;20039;-69
2022/03/09 07:48:11;;;;;;;23.45;8.35;;;;;;;-4.03;76.64;96124.66;5048048;28;20041;-68
2022/03/09 07:50:37;;;;;;;25.73;8.52;;;;;;;-3.84;76.31;96129.44;5047834;28;20048;-68
2022/03/09 07:53:04;;;;;;;18.17;8.07;;;;;;;-3.80;75.66;96140.22;5058379;28;20037;-69
2022/03/09 07:55:30;;;;;;;19.70;9.48;;;;;;;-3.77;75.85;96137.31;5037044;28;20045;-68
2022/03/09 07:57:56;;;;;;;24.50;9.18;;;;;;;-3.70;75.37;96153.72;5042276;28;20060;-69
2022/03/09 08:00:21;;;;;;;27.45;8.85;;;;;;;-3.63;75.51;96147.91;5038082;28;20045;-68
2022/03/09 08:02:47;;;;;;;28.25;8.60;;;;;;;-3.51;74.80;96146.59;5048273;28;20091;-68
2022/03/09 08:05:13;;;;;;;24.45;9.73;;;;;;;-3.36;74.91;96150.09;5048051;28;20041;-68
2022/03/09 08:07:38;;;;;;;19.83;9.38;;;;;;;-3.28;74.60;96145.88;5041613;28;20049;-68
2022/03/09 08:10:04;;;;;;;31.85;9.68;;;;;;;-3.21;73.09;96155.34;5039941;28;20119;-67
2022/03/09 08:12:31;;;;;;;25.48;9.00;;;;;;;-3.17;73.12;96155.81;5044114;28;20055;-68
2022/03/09 08:14:57;;;;;;;27.80;7.88;;;;;;;-3.10;73.10;96161.91;5036104;28;20074;-68
2022/03/09 08:17:23;;;;;;;22.83;8.15;;;;;;;-3.06;72.99;96158.03;5031789;28;20100;-68
2022/03/09 08:19:48;;;;;;;20.15;8.15;;;;;;;-2.85;71.84;96154.84;5050198;28;20502;-68
2022/03/09 08:22:14;;;;;;;20.35;8.07;;;;;;;-2.76;71.65;96168.50;5036720;28;20046;-68
2022/03/09 08:24:39;;;;;;;25.00;8.25;;;;;;;-2.32;69.46;96160.19;5049635;28;20052;-76
2022/03/09 08:27:05;;;;;;;21.98;8.02;;;;;;;-1.69;67.60;96162.56;5032726;28;20048;-70
2022/03/09 08:29:31;;;;;;;22.98;9.15;;;;;;;-1.79;67.80;96169.78;5029242;28;20124;-73
2022/03/09 08:31:56;;;;;;;20.33;8.23;;;;;;;-1.92;67.27;96166.00;5032848;28;20057;-68
2022/03/09 08:34:22;;;;;;;18.77;8.30;;;;;;;-1.70;66.83;96158.38;5049728;28;20452;-69
2022/03/09 08:36:48;;;;;;;21.40;8.50;;;;;;;-0.80;63.02;96158.38;5047781;28;20056;-69
2022/03/09 08:39:13;;;;;;;20.67;9.10;;;;;;;-1.00;64.22;96163.31;5047421;28;20030;-69
2022/03/09 08:41:39;;;;;;;19.95;8.40;;;;;;;-1.05;63.45;96166.41;5037557;28;20419;-69
2022/03/09 08:44:05;;;;;;;22.98;8.85;;;;;;;-1.17;64.90;96157.53;5032628;28;20040;-69
2022/03/09 08:46:30;;;;;;;24.27;9.15;;;;;;;-1.18;64.86;96155.91;5031614;28;20042;-70
2022/03/09 08:48:57;;;;;;;21.27;9.23;;;;;;;-1.11;64.67;96156.81;5033533;28;20592;-71
2022/03/09 08:51:23;;;;;;;28.25;9.77;;;;;;;-1.08;64.96;96167.59;5030546;28;20062;-70
2022/03/09 08:53:49;;;;;;;23.70;9.32;;;;;;;-1.05;64.77;96158.66;5052580;28;20418;-69
2022/03/09 08:56:15;;;;;;;25.48;9.02;;;;;;;-0.81;63.27;96156.78;5044662;28;20044;-69
2022/03/09 08:58:41;;;;;;;25.80;9.02;;;;;;;-0.65;63.02;96161.72;5037854;28;20060;-70
2022/03/09 09:01:07;;;;;;;19.17;9.00;;;;;;;-0.33;61.45;96159.69;5045458;28;20044;-70
2022/03/09 09:03:33;;;;;;;24.00;9.07;;;;;;;-0.36;61.68;96154.84;5043954;28;20045;-70
2022/03/09 09:06:00;;;;;;;19.88;9.45;;;;;;;-0.31;60.85;96152.53;5047030;28;20041;-69
2022/03/09 09:08:26;;;;;;;24.90;9.75;;;;;;;-0.11;59.74;96150.13;5034375;28;20113;-68
2022/03/09 09:10:51;;;;;;;23.27;9.38;;;;;;;0.11;57.94;96156.06;5034760;28;20045;-69
2022/03/09 09:13:17;;;;;;;24.42;9.25;;;;;;;0.47;58.17;96149.94;5044083;28;20041;-69
2022/03/09 09:15:43;;;;;;;21.70;9.40;;;;;;;0.43;56.58;96148.75;5046523;28;20083;-70
2022/03/09 09:18:09;;;;;;;18.70;8.15;;;;;;;0.38;57.40;96145.91;5051906;28;20037;-69
2022/03/09 09:20:35;;;;;;;19.27;8.48;;;;;;;0.47;56.28;96147.34;5050228;28;20052;-69
2022/03/09 09:23:02;;;;;;;17.45;7.75;;;;;;;0.49;56.38;96142.00;5039029;28;20055;-69
2022/03/09 09:25:28;;;;;;;16.80;8.13;;;;;;;0.64;55.90;96149.66;5046158;28;20675;-70
2022/03/09 09:27:56;;;;;;;18.25;8.50;;;;;;;0.76;55.15;96136.97;5043353;28;20034;-69
2022/03/09 09:30:23;;;;;;;22.27;8.27;;;;;;;0.84;54.84;96150.56;5052728;28;20041;-70
2022/03/09 09:32:49;;;;;;;17.45;8.35;;;;;;;0.87;55.82;96149.38;5045843;28;20514;-69
2022/03/09 09:35:16;;;;;;;17.23;8.15;;;;;;;1.24;53.37;96143.97;5043521;28;20041;-69
2022/03/09 09:37:43;;;;;;;21.52;8.57;;;;;;;1.50;50.84;96144.03;5051791;28;20125;-69
2022/03/09 09:40:11;;;;;;;22.40;8.52;;;;;;;1.85;50.84;96141.31;5034588;28;20439;-69
2022/03/09 09:42:37;;;;;;;20.23;7.93;;;;;;;1.67;49.79;96149.66;5046400;28;20051;-69
2022/03/09 09:45:04;;;;;;;16.20;7.68;;;;;;;2.27;47.10;96137.69;5045091;28;20048;-69
2022/03/09 09:47:32;;;;;;;17.70;7.75;;;;;;;2.30;47.89;96137.28;5048761;28;20041;-69
2022/03/09 09:49:58;;;;;;;15.13;6.97;;;;;;;2.18;47.22;96140.50;5047449;28;20052;-69
2022/03/09 09:52:25;;;;;;;15.52;6.90;;;;;;;1.97;47.65;96138.91;5046908;28;20064;-69
2022/03/09 09:54:54;;;;;;;18.23;7.65;;;;;;;1.90;48.58;96144.09;5041452;28;20040;-69
2022/03/09 09:57:20;;;;;;;18.17;7.75;;;;;;;2.29;48.26;96130.53;5038447;28;20040;-69
2022/03/09 09:59:47;;;;;;;21.00;7.82;;;;;;;2.52;46.60;96136.06;5051882;28;20875;-69
2022/03/09 10:02:12;;;;;;;16.10;7.90;;;;;;;3.26;45.59;96131.44;5045005;28;20045;-68
2022/03/09 10:04:39;;;;;;;18.45;7.40;;;;;;;3.64;44.34;96132.44;5048016;28;20068;-68
2022/03/09 10:07:06;;;;;;;16.70;7.35;;;;;;;3.55;43.47;96134.50;5048171;28;20044;-68
2022/03/09 10:09:39;;;;;;;14.98;6.85;;;;;;;3.58;42.06;96131.47;5051558;28;20045;-68
2022/03/09 10:12:06;;;;;;;16.33;8.00;;;;;;;3.90;43.19;96131.47;5048063;28;20401;-68
2022/03/09 10:14:37;;;;;;;13.88;6.97;;;;;;;4.40;41.88;96129.88;5038799;28;20494;-69
2022/03/09 10:17:08;;;;;;;14.23;6.40;;;;;;;4.96;41.55;96123.69;5051368;28;20048;-69
2022/03/09 10:19:36;;;;;;;18.95;6.93;;;;;;;6.67;36.65;96126.06;5040761;28;20503;-69
2022/03/09 10:22:21;;;;;;;12.90;6.50;;;;;;;8.32;30.67;96114.13;5031609;28;20106;-69
2022/03/09 10:24:47;;;;;;;12.23;6.47;;;;;;;9.29;31.43;96111.19;5037733;28;20515;-69
2022/03/09 10:27:12;;;;;;;12.30;6.30;;;;;;;9.78;29.36;96118.25;5037852;28;20056;-68
2022/03/09 10:29:38;;;;;;;17.52;6.53;;;;;;;9.73;28.76;96116.38;5035052;28;20092;-68
2022/03/09 10:32:04;;;;;;;13.00;6.18;;;;;;;10.80;28.69;96110.31;5064408;28;20047;-69
2022/03/09 10:34:29;;;;;;;12.52;6.63;;;;;;;11.15;26.50;96108.91;5044401;28;20476;-69
2022/03/09 10:36:59;;;;;;;15.52;6.63;;;;;;;11.91;26.20;96104.88;5046174;28;20057;-69
2022/03/09 10:39:28;;;;;;;15.65;7.10;;;;;;;12.43;25.70;96102.25;5045052;28;20041;-69
2022/03/09 10:41:54;;;;;;;13.25;7.13;;;;;;;12.92;25.82;96101.59;5053963;28;20048;-69
2022/03/09 10:44:49;;;;;;;12.88;7.13;;;;;;;12.27;25.29;96107.53;5045498;28;20037;-69
2022/03/09 10:47:50;;;;;;;13.50;6.97;;;;;;;12.64;24.28;96106.44;5071085;28;20041;-69
2022/03/09 10:50:21;;;;;;;13.40;6.10;;;;;;;12.52;22.80;96103.28;5043973;28;20506;-69
2022/03/09 10:52:54;;;;;;;14.07;7.28;;;;;;;13.90;22.32;96103.78;5056099;28;20072;-69
2022/03/09 10:55:36;;;;;;;16.02;7.57;;;;;;;14.52;21.95;96097.97;5037333;28;20045;-69
2022/03/09 10:58:19;;;;;;;14.68;7.82;;;;;;;14.16;21.74;96095.63;5046418;28;20472;-69
2022/03/09 11:00:53;;;;;;;15.98;7.65;;;;;;;14.42;21.14;96098.06;5041401;28;20111;-72
2022/03/09 11:03:24;;;;;;;15.15;8.80;;;;;;;13.53;21.65;96094.47;5042314;28;20042;-72
2022/03/09 11:05:59;;;;;;;15.95;8.50;;;;;;;13.96;22.46;96088.66;5049607;28;20270;-70
2022/03/09 11:08:27;;;;;;;20.27;10.07;;;;;;;14.37;22.70;96078.50;5068890;28;20051;-71
2022/03/09 11:10:58;;;;;;;19.52;10.10;;;;;;;12.78;23.28;96084.75;5046753;28;20041;-71
2022/03/09 11:13:25;;;;;;;17.58;9.55;;;;;;;13.34;22.94;96087.19;5029848;28;20041;-70
2022/03/09 11:15:53;;;;;;;23.80;10.48;;;;;;;13.16;22.84;96088.56;5042047;28;20041;-70
2022/03/09 11:18:24;;;;;;;21.05;11.00;;;;;;;12.60;25.01;96089.56;5043291;28;20065;-70
2022/03/09 11:20:55;;;;;;;20.67;10.43;;;;;;;14.67;21.85;96084.59;5048159;28;20049;-71
2022/03/09 11:23:21;;;;;;;19.50;10.07;;;;;;;14.36;21.39;96082.22;5040198;28;20052;-71